createdAt,value
2022-11-16T00:00:47.525Z,8.31
2022-11-16T00:01:47.558Z,8.33
2022-11-16T00:02:47.540Z,8.30
2022-11-16T00:03:47.545Z,8.29
2022-11-16T00:04:47.565Z,8.26
2022-11-16T00:05:47.558Z,8.28
2022-11-16T00:06:47.615Z,8.27
2022-11-16T00:07:47.574Z,8.27
2022-11-16T00:08:47.580Z,8.28
2022-11-16T00:09:47.599Z,8.26
2022-11-16T00:10:47.608Z,8.28
2022-11-16T00:11:47.613Z,8.25
2022-11-16T00:12:47.620Z,8.25
2022-11-16T00:13:47.631Z,8.24
2022-11-16T00:14:47.639Z,8.25
2022-11-16T00:15:47.648Z,8.25
2022-11-16T00:16:47.663Z,8.24
2022-11-16T00:17:47.664Z,8.23
2022-11-16T00:18:47.675Z,8.23
2022-11-16T00:19:47.678Z,8.24
2022-11-16T00:20:47.685Z,8.18
2022-11-16T00:21:47.693Z,8.16
2022-11-16T00:22:47.700Z,8.15
2022-11-16T00:23:47.703Z,8.12
2022-11-16T00:24:47.711Z,8.08
2022-11-16T00:25:47.723Z,8.07
2022-11-16T00:26:47.728Z,8.05
2022-11-16T00:27:47.739Z,8.02
2022-11-16T00:28:47.742Z,7.99
2022-11-16T00:29:47.757Z,7.98
2022-11-16T00:30:51.539Z,7.96
2022-11-16T00:31:47.776Z,7.93
2022-11-16T00:32:47.778Z,7.92
2022-11-16T00:33:47.787Z,7.90
2022-11-16T00:34:47.792Z,7.89
2022-11-16T00:35:47.807Z,7.88
2022-11-16T00:36:47.807Z,7.87
2022-11-16T00:37:47.813Z,7.87
2022-11-16T00:38:47.821Z,7.87
2022-11-16T00:39:47.844Z,7.82
2022-11-16T00:40:47.827Z,7.78
2022-11-16T00:41:47.839Z,7.76
2022-11-16T00:42:47.846Z,7.73
2022-11-16T00:43:47.853Z,7.73
2022-11-16T00:44:47.862Z,7.72
2022-11-16T00:45:47.863Z,7.73
2022-11-16T00:46:47.873Z,7.74
2022-11-16T00:47:47.879Z,7.74
2022-11-16T00:48:47.887Z,7.76
2022-11-16T00:49:47.893Z,7.76
2022-11-16T00:50:47.899Z,7.74
2022-11-16T00:51:47.908Z,7.74
2022-11-16T00:52:47.913Z,7.75
2022-11-16T00:53:47.919Z,7.75
2022-11-16T00:54:47.926Z,7.73
2022-11-16T00:55:47.958Z,7.73
2022-11-16T00:56:47.953Z,7.74
2022-11-16T00:57:47.961Z,7.72
2022-11-16T00:58:47.967Z,7.71
2022-11-16T00:59:47.978Z,7.70
2022-11-16T01:00:47.984Z,7.72
2022-11-16T01:01:48.038Z,7.75
2022-11-16T01:02:48.011Z,7.75
2022-11-16T01:03:48.026Z,7.73
2022-11-16T01:04:48.031Z,7.75
2022-11-16T01:05:48.042Z,7.72
2022-11-16T01:06:48.077Z,7.76
2022-11-16T01:07:48.052Z,7.74
2022-11-16T01:08:48.060Z,7.74
2022-11-16T01:09:48.064Z,7.72
2022-11-16T01:10:48.070Z,7.74
2022-11-16T01:11:48.077Z,7.73
2022-11-16T01:12:48.088Z,7.71
2022-11-16T01:13:48.093Z,7.69
2022-11-16T01:14:48.104Z,7.69
2022-11-16T01:15:48.106Z,7.69
2022-11-16T01:16:48.114Z,7.70
2022-11-16T01:17:48.124Z,7.70
2022-11-16T01:18:48.133Z,7.71
2022-11-16T01:19:48.137Z,7.75
2022-11-16T01:20:48.149Z,7.74
2022-11-16T01:21:48.155Z,7.77
2022-11-16T01:22:48.166Z,7.77
2022-11-16T01:23:48.168Z,7.76
2022-11-16T01:24:48.182Z,7.77
2022-11-16T01:25:48.185Z,7.78
2022-11-16T01:26:48.195Z,7.79
2022-11-16T01:27:48.203Z,7.79
2022-11-16T01:28:48.210Z,7.80
2022-11-16T01:29:48.217Z,7.79
2022-11-16T01:30:48.222Z,7.79
2022-11-16T01:31:48.235Z,7.78
2022-11-16T01:32:48.235Z,7.78
2022-11-16T01:33:48.246Z,7.76
2022-11-16T01:34:48.250Z,7.74
2022-11-16T01:35:48.253Z,7.73
2022-11-16T01:36:48.268Z,7.74
2022-11-16T01:37:48.274Z,7.72
2022-11-16T01:38:48.278Z,7.71
2022-11-16T01:39:48.287Z,7.71
2022-11-16T01:40:48.290Z,7.72
2022-11-16T01:41:48.300Z,7.68
2022-11-16T01:59:48.643Z,7.69
2022-11-16T02:00:48.540Z,7.69
2022-11-16T02:01:48.445Z,7.68
2022-11-16T02:02:48.455Z,7.68
2022-11-16T02:03:48.460Z,7.65
2022-11-16T02:04:48.468Z,7.62
2022-11-16T02:05:48.475Z,7.61
2022-11-16T02:06:48.516Z,7.61
2022-11-16T02:07:48.493Z,7.62
2022-11-16T02:08:48.499Z,7.60
2022-11-16T02:09:48.505Z,7.58
2022-11-16T02:10:48.508Z,7.58
2022-11-16T02:11:48.518Z,7.57
2022-11-16T02:12:48.522Z,7.58
2022-11-16T02:13:50.300Z,7.55
2022-11-16T02:14:48.535Z,7.55
2022-11-16T02:15:48.543Z,7.54
2022-11-16T02:16:48.554Z,7.52
2022-11-16T02:17:48.558Z,7.49
2022-11-16T02:18:48.603Z,7.47
2022-11-16T02:19:48.568Z,7.45
2022-11-16T02:20:48.577Z,7.46
2022-11-16T02:21:48.588Z,7.45
2022-11-16T02:22:48.594Z,7.45
2022-11-16T02:23:48.601Z,7.39
2022-11-16T02:24:48.610Z,7.37
2022-11-16T02:25:48.616Z,7.34
2022-11-16T02:26:48.625Z,7.34
2022-11-16T02:27:48.631Z,7.32
2022-11-16T02:28:48.642Z,7.31
2022-11-16T02:29:48.652Z,7.28
2022-11-16T02:30:48.665Z,7.25
2022-11-16T02:31:48.673Z,7.24
2022-11-16T02:32:48.680Z,7.22
2022-11-16T02:33:48.694Z,7.24
2022-11-16T02:34:48.698Z,7.24
2022-11-16T02:35:48.701Z,7.23
2022-11-16T02:36:48.712Z,7.23
2022-11-16T02:37:48.719Z,7.24
2022-11-16T02:38:48.727Z,7.25
2022-11-16T02:39:48.733Z,7.24
2022-11-16T02:40:48.739Z,7.26
2022-11-16T02:41:48.749Z,7.27
2022-11-16T02:42:48.761Z,7.28
2022-11-16T02:43:48.770Z,7.27
2022-11-16T02:44:48.779Z,7.26
2022-11-16T02:45:48.786Z,7.29
2022-11-16T02:46:48.794Z,7.29
2022-11-16T02:47:48.803Z,7.32
2022-11-16T02:48:48.812Z,7.32
2022-11-16T02:49:48.822Z,7.33
2022-11-16T02:50:48.829Z,7.34
2022-11-16T02:51:48.844Z,7.35
2022-11-16T02:52:48.846Z,7.37
2022-11-16T02:53:48.856Z,7.37
2022-11-16T02:54:48.863Z,7.37
2022-11-16T02:55:48.869Z,7.38
2022-11-16T02:56:48.876Z,7.38
2022-11-16T02:57:48.887Z,7.36
2022-11-16T02:58:48.896Z,7.36
2022-11-16T02:59:48.905Z,7.36
2022-11-16T03:00:48.956Z,7.33
2022-11-16T03:01:48.921Z,7.33
2022-11-16T03:02:48.924Z,7.35
2022-11-16T03:03:48.930Z,7.36
2022-11-16T03:04:48.934Z,7.34
2022-11-16T03:05:48.944Z,7.35
2022-11-16T03:06:48.980Z,7.34
2022-11-16T03:07:48.959Z,7.37
2022-11-16T03:08:48.969Z,7.39
2022-11-16T03:09:48.976Z,7.40
2022-11-16T03:10:48.986Z,7.38
2022-11-16T03:11:48.995Z,7.41
2022-11-16T03:12:49.004Z,7.38
2022-11-16T03:13:49.010Z,7.36
2022-11-16T03:14:49.016Z,7.35
2022-11-16T03:15:49.023Z,7.37
2022-11-16T03:16:50.743Z,7.38
2022-11-16T03:17:49.041Z,7.38
2022-11-16T03:18:49.053Z,7.37
2022-11-16T03:19:49.060Z,7.38
2022-11-16T03:20:49.073Z,7.38
2022-11-16T03:21:49.079Z,7.38
2022-11-16T03:22:49.086Z,7.40
2022-11-16T03:23:49.100Z,7.40
2022-11-16T03:24:49.101Z,7.39
2022-11-16T03:25:49.108Z,7.40
2022-11-16T03:26:49.114Z,7.41
2022-11-16T03:27:49.120Z,7.43
2022-11-16T03:28:49.124Z,7.41
2022-11-16T03:29:49.134Z,7.42
2022-11-16T03:30:49.143Z,7.40
2022-11-16T03:31:49.150Z,7.41
2022-11-16T03:32:49.157Z,7.42
2022-11-16T03:33:49.167Z,7.42
2022-11-16T03:34:49.176Z,7.43
2022-11-16T03:35:49.184Z,7.42
2022-11-16T03:36:49.182Z,7.43
2022-11-16T03:37:49.196Z,7.41
2022-11-16T03:38:49.205Z,7.37
2022-11-16T03:39:49.217Z,7.38
2022-11-16T03:40:49.225Z,7.40
2022-11-16T03:41:49.231Z,7.39
2022-11-16T03:42:49.241Z,7.39
2022-11-16T03:43:49.247Z,7.39
2022-11-16T03:44:49.258Z,7.36
2022-11-16T03:45:49.274Z,7.34
2022-11-16T03:46:49.267Z,7.34
2022-11-16T03:47:49.279Z,7.33
2022-11-16T03:48:49.338Z,7.34
2022-11-16T03:49:49.298Z,7.30
2022-11-16T03:50:49.308Z,7.28
2022-11-16T03:51:49.310Z,7.29
2022-11-16T03:52:49.325Z,7.29
2022-11-16T03:53:49.336Z,7.29
2022-11-16T03:54:49.343Z,7.31
2022-11-16T03:55:50.026Z,7.30
2022-11-16T03:56:49.359Z,7.28
2022-11-16T03:57:49.374Z,7.26
2022-11-16T03:58:49.382Z,7.25
2022-11-16T03:59:49.390Z,7.24
2022-11-16T04:00:49.431Z,7.23
2022-11-16T04:01:49.403Z,7.20
2022-11-16T04:02:49.422Z,7.22
2022-11-16T04:03:49.425Z,7.21
2022-11-16T04:04:49.432Z,7.22
2022-11-16T04:05:49.441Z,7.21
2022-11-16T04:06:49.543Z,7.20
2022-11-16T04:07:49.458Z,7.19
2022-11-16T04:08:49.466Z,7.20
2022-11-16T04:09:49.475Z,7.18
2022-11-16T04:10:49.487Z,7.19
2022-11-16T04:11:49.492Z,7.17
2022-11-16T04:12:49.502Z,7.17
2022-11-16T04:13:49.513Z,7.18
2022-11-16T04:14:49.522Z,7.17
2022-11-16T04:15:49.530Z,7.16
2022-11-16T04:16:49.540Z,7.15
2022-11-16T04:17:49.548Z,7.18
2022-11-16T04:18:49.559Z,7.16
2022-11-16T04:19:50.925Z,7.16
2022-11-16T04:20:49.577Z,7.16
2022-11-16T04:21:49.586Z,7.16
2022-11-16T04:22:49.599Z,7.15
2022-11-16T04:23:49.607Z,7.13
2022-11-16T04:24:49.622Z,7.14
2022-11-16T04:25:49.639Z,7.10
2022-11-16T04:26:49.640Z,7.12
2022-11-16T04:27:49.650Z,7.12
2022-11-16T04:28:49.660Z,7.13
2022-11-16T04:29:49.666Z,7.15
2022-11-16T04:30:49.676Z,7.16
2022-11-16T04:31:49.686Z,7.17
2022-11-16T04:32:49.708Z,7.17
2022-11-16T04:33:49.701Z,7.18
2022-11-16T04:34:49.712Z,7.17
2022-11-16T04:35:49.720Z,7.18
2022-11-16T04:36:49.724Z,7.18
2022-11-16T04:37:49.736Z,7.18
2022-11-16T04:38:49.738Z,7.19
2022-11-16T04:39:49.747Z,7.20
2022-11-16T04:40:49.753Z,7.18
2022-11-16T04:41:49.759Z,7.16
2022-11-16T04:42:49.767Z,7.15
2022-11-16T04:43:49.771Z,7.13
2022-11-16T04:44:49.784Z,7.13
2022-11-16T04:45:49.791Z,7.14
2022-11-16T04:46:49.800Z,7.15
2022-11-16T04:47:49.809Z,7.15
2022-11-16T04:48:49.817Z,7.14
2022-11-16T04:49:49.825Z,7.16
2022-11-16T04:50:49.830Z,7.16
2022-11-16T04:51:49.842Z,7.18
2022-11-16T04:52:49.851Z,7.14
2022-11-16T04:53:49.861Z,7.14
2022-11-16T04:54:49.871Z,7.16
2022-11-16T04:55:49.881Z,7.15
2022-11-16T04:56:49.890Z,7.13
2022-11-16T04:57:49.897Z,7.12
2022-11-16T04:58:49.917Z,7.12
2022-11-16T04:59:49.915Z,7.10
2022-11-16T05:00:49.924Z,7.10
2022-11-16T05:01:49.941Z,7.10
2022-11-16T05:02:49.941Z,7.10
2022-11-16T05:03:49.948Z,7.10
2022-11-16T05:04:49.953Z,7.10
2022-11-16T05:05:49.957Z,7.10
2022-11-16T05:06:50.000Z,7.09
2022-11-16T05:07:49.979Z,7.07
2022-11-16T05:08:49.987Z,7.06
2022-11-16T05:09:49.993Z,7.07
2022-11-16T05:10:49.995Z,7.06
2022-11-16T05:11:50.014Z,7.02
2022-11-16T05:12:50.016Z,7.01
2022-11-16T05:13:50.023Z,6.97
2022-11-16T05:14:50.027Z,6.94
2022-11-16T05:15:50.037Z,6.93
2022-11-16T05:16:50.045Z,6.92
2022-11-16T05:17:50.054Z,6.93
2022-11-16T05:18:50.060Z,6.93
2022-11-16T05:19:50.066Z,6.93
2022-11-16T05:20:50.075Z,6.93
2022-11-16T05:21:50.084Z,6.94
2022-11-16T05:22:50.091Z,6.96
2022-11-16T05:23:50.096Z,6.95
2022-11-16T05:24:50.099Z,6.98
2022-11-16T05:25:50.106Z,6.99
2022-11-16T05:26:50.115Z,6.97
2022-11-16T05:27:50.124Z,6.96
2022-11-16T05:28:50.134Z,6.93
2022-11-16T05:29:50.142Z,6.92
2022-11-16T05:30:50.150Z,6.93
2022-11-16T05:31:50.163Z,6.96
2022-11-16T05:32:50.172Z,7.00
2022-11-16T05:33:50.180Z,7.03
2022-11-16T05:34:50.257Z,7.05
2022-11-16T05:35:50.198Z,7.04
2022-11-16T05:36:50.204Z,7.04
2022-11-16T05:37:50.219Z,7.03
2022-11-16T05:38:53.881Z,7.05
2022-11-16T05:39:50.231Z,7.03
2022-11-16T05:40:50.242Z,7.05
2022-11-16T05:41:50.249Z,7.06
2022-11-16T05:42:50.260Z,7.06
2022-11-16T05:43:50.272Z,7.05
2022-11-16T05:44:50.283Z,7.07
2022-11-16T05:45:50.289Z,7.07
2022-11-16T05:46:50.301Z,7.07
2022-11-16T05:47:50.312Z,7.07
2022-11-16T05:48:50.325Z,7.07
2022-11-16T05:49:50.329Z,7.08
2022-11-16T05:50:50.340Z,7.08
2022-11-16T05:51:50.347Z,7.07
2022-11-16T05:52:50.354Z,7.03
2022-11-16T05:53:50.364Z,7.01
2022-11-16T05:54:50.372Z,7.01
2022-11-16T05:55:50.423Z,7.02
2022-11-16T05:56:50.394Z,7.02
2022-11-16T05:57:50.403Z,7.00
2022-11-16T05:58:50.415Z,7.00
2022-11-16T05:59:50.420Z,7.00
2022-11-16T06:00:50.428Z,7.03
2022-11-16T06:01:50.440Z,7.04
2022-11-16T06:02:50.461Z,7.04
2022-11-16T06:03:50.452Z,7.04
2022-11-16T06:21:50.969Z,7.01
2022-11-16T06:22:50.625Z,7.03
2022-11-16T06:23:50.628Z,7.01
2022-11-16T06:24:50.636Z,7.00
2022-11-16T06:25:50.648Z,7.01
2022-11-16T06:26:50.652Z,7.03
2022-11-16T06:27:50.658Z,7.03
2022-11-16T06:28:50.667Z,7.01
2022-11-16T06:29:50.685Z,6.99
2022-11-16T06:30:50.689Z,6.97
2022-11-16T06:31:50.696Z,6.99
2022-11-16T06:32:50.701Z,6.98
2022-11-16T06:33:50.713Z,7.01
2022-11-16T06:34:50.719Z,7.00
2022-11-16T06:35:50.729Z,7.03
2022-11-16T06:36:50.739Z,7.03
2022-11-16T06:37:50.744Z,7.03
2022-11-16T06:38:50.754Z,7.03
2022-11-16T06:39:50.764Z,7.03
2022-11-16T06:40:50.775Z,7.02
2022-11-16T06:41:50.779Z,7.00
2022-11-16T06:42:50.793Z,7.01
2022-11-16T06:43:50.805Z,7.00
2022-11-16T06:44:50.814Z,7.00
2022-11-16T06:45:50.823Z,6.99
2022-11-16T06:46:50.830Z,6.97
2022-11-16T06:47:50.839Z,7.00
2022-11-16T06:48:50.845Z,7.00
2022-11-16T06:49:50.855Z,7.00
2022-11-16T06:50:50.865Z,7.00
2022-11-16T06:51:50.873Z,7.01
2022-11-16T06:52:50.879Z,7.03
2022-11-16T06:53:50.893Z,7.04
2022-11-16T06:54:50.893Z,7.07
2022-11-16T06:55:50.905Z,7.07
2022-11-16T06:56:50.953Z,7.07
2022-11-16T06:57:50.921Z,7.08
2022-11-16T06:58:53.398Z,7.09
2022-11-16T06:59:50.948Z,7.12
2022-11-16T07:00:50.962Z,7.15
2022-11-16T07:01:51.004Z,7.14
2022-11-16T07:02:50.971Z,7.14
2022-11-16T07:03:50.985Z,7.13
2022-11-16T07:04:50.997Z,7.13
2022-11-16T07:05:50.997Z,7.16
2022-11-16T07:06:51.056Z,7.17
2022-11-16T07:07:51.021Z,7.18
2022-11-16T07:08:51.029Z,7.14
2022-11-16T07:09:51.040Z,7.16
2022-11-16T07:10:51.057Z,7.17
2022-11-16T07:11:51.057Z,7.17
2022-11-16T07:12:51.073Z,7.16
2022-11-16T07:13:51.073Z,7.17
2022-11-16T07:14:51.078Z,7.16
2022-11-16T07:15:51.093Z,7.17
2022-11-16T07:16:54.943Z,7.17
2022-11-16T07:17:51.109Z,7.14
2022-11-16T07:18:51.115Z,7.13
2022-11-16T07:19:51.122Z,7.13
2022-11-16T07:20:51.125Z,7.14
2022-11-16T07:21:51.136Z,7.12
2022-11-16T07:22:51.143Z,7.12
2022-11-16T07:23:51.152Z,7.13
2022-11-16T07:24:51.159Z,7.14
2022-11-16T07:25:51.169Z,7.14
2022-11-16T07:26:51.183Z,7.13
2022-11-16T07:27:51.190Z,7.16
2022-11-16T07:28:51.202Z,7.16
2022-11-16T07:29:51.214Z,7.15
2022-11-16T07:30:51.220Z,7.18
2022-11-16T07:31:51.229Z,7.17
2022-11-16T07:32:51.243Z,7.16
2022-11-16T07:33:51.251Z,7.18
2022-11-16T07:34:51.260Z,7.17
2022-11-16T07:35:51.274Z,7.17
2022-11-16T07:36:51.281Z,7.17
2022-11-16T07:37:51.292Z,7.17
2022-11-16T07:38:51.307Z,7.16
2022-11-16T07:39:51.310Z,7.18
2022-11-16T07:40:51.318Z,7.15
2022-11-16T07:41:51.329Z,7.14
2022-11-16T07:42:51.340Z,7.15
2022-11-16T07:43:53.130Z,7.18
2022-11-16T07:44:51.361Z,7.17
2022-11-16T07:45:51.375Z,7.19
2022-11-16T07:46:51.381Z,7.18
2022-11-16T07:47:51.393Z,7.21
2022-11-16T07:48:51.402Z,7.20
2022-11-16T07:49:51.408Z,7.23
2022-11-16T07:50:51.415Z,7.23
2022-11-16T07:51:51.420Z,7.27
2022-11-16T07:52:51.435Z,7.27
2022-11-16T07:53:51.440Z,7.27
2022-11-16T07:54:51.449Z,7.26
2022-11-16T07:55:51.460Z,7.24
2022-11-16T07:56:51.470Z,7.25
2022-11-16T07:57:53.378Z,7.23
2022-11-16T07:58:51.482Z,7.24
2022-11-16T07:59:51.495Z,7.26
2022-11-16T08:00:51.500Z,7.28
2022-11-16T08:01:51.584Z,7.28
2022-11-16T08:02:51.516Z,7.31
2022-11-16T08:03:51.522Z,7.29
2022-11-16T08:04:51.528Z,7.31
2022-11-16T08:05:51.533Z,7.28
2022-11-16T08:06:51.630Z,7.26
2022-11-16T08:07:51.546Z,7.28
2022-11-16T08:08:56.785Z,7.26
2022-11-16T08:09:51.634Z,7.21
2022-11-16T08:10:51.579Z,7.22
2022-11-16T08:11:51.584Z,7.23
2022-11-16T08:12:51.597Z,7.24
2022-11-16T08:13:51.613Z,7.25
2022-11-16T08:14:51.620Z,7.26
2022-11-16T08:15:51.630Z,7.23
2022-11-16T08:16:51.634Z,7.22
2022-11-16T08:17:51.647Z,7.20
2022-11-16T08:18:51.663Z,7.20
2022-11-16T08:19:51.673Z,7.20
2022-11-16T08:20:51.685Z,7.23
2022-11-16T08:21:51.699Z,7.23
2022-11-16T08:22:51.705Z,7.27
2022-11-16T08:23:56.883Z,7.28
2022-11-16T08:24:51.719Z,7.30
2022-11-16T08:25:51.724Z,7.29
2022-11-16T08:26:51.739Z,7.28
2022-11-16T08:27:51.745Z,7.31
2022-11-16T08:28:51.755Z,7.31
2022-11-16T08:29:51.766Z,7.34
2022-11-16T08:30:53.780Z,7.36
2022-11-16T08:31:51.786Z,7.37
2022-11-16T08:32:51.799Z,7.38
2022-11-16T08:33:51.811Z,7.37
2022-11-16T08:34:51.818Z,7.39
2022-11-16T08:35:51.829Z,7.36
2022-11-16T08:36:51.836Z,7.34
2022-11-16T08:37:51.847Z,7.32
2022-11-16T08:38:51.856Z,7.33
2022-11-16T08:39:51.867Z,7.31
2022-11-16T08:40:51.880Z,7.34
2022-11-16T08:41:51.889Z,7.37
2022-11-16T08:42:51.902Z,7.36
2022-11-16T08:43:51.916Z,7.38
2022-11-16T08:44:51.926Z,7.37
2022-11-16T08:45:51.938Z,7.37
2022-11-16T08:46:51.949Z,7.36
2022-11-16T08:48:03.077Z,7.37
2022-11-16T08:48:51.973Z,7.39
2022-11-16T08:49:51.979Z,7.40
2022-11-16T08:51:15.744Z,7.42
2022-11-16T08:51:51.991Z,7.43
2022-11-16T08:52:52.003Z,7.45
2022-11-16T08:53:52.009Z,7.46
2022-11-16T08:54:52.021Z,7.46
2022-11-16T08:55:52.028Z,7.46
2022-11-16T08:56:52.039Z,7.43
2022-11-16T08:57:52.052Z,7.42
2022-11-16T08:58:56.881Z,7.40
2022-11-16T08:59:52.071Z,7.37
2022-11-16T09:00:52.078Z,7.37
2022-11-16T09:01:52.090Z,7.38
2022-11-16T09:02:52.101Z,7.39
2022-11-16T09:03:52.110Z,7.41
2022-11-16T09:04:52.116Z,7.43
2022-11-16T09:05:52.127Z,7.43
2022-11-16T09:06:52.176Z,7.44
2022-11-16T09:07:52.145Z,7.42
2022-11-16T09:08:52.153Z,7.40
2022-11-16T09:09:52.158Z,7.39
2022-11-16T09:10:52.170Z,7.35
2022-11-16T09:11:52.183Z,7.32
2022-11-16T09:12:52.195Z,7.31
2022-11-16T09:13:52.208Z,7.32
2022-11-16T09:14:52.220Z,7.32
2022-11-16T09:15:52.224Z,7.35
2022-11-16T09:16:52.229Z,7.37
2022-11-16T09:17:52.254Z,7.38
2022-11-16T09:18:52.241Z,7.40
2022-11-16T09:19:52.254Z,7.41
2022-11-16T09:20:52.266Z,7.42
2022-11-16T09:21:52.270Z,7.43
2022-11-16T09:22:52.281Z,7.45
2022-11-16T09:23:52.287Z,7.42
2022-11-16T09:24:52.294Z,7.42
2022-11-16T09:25:52.306Z,7.42
2022-11-16T09:26:52.310Z,7.41
2022-11-16T09:27:52.322Z,7.42
2022-11-16T09:28:52.335Z,7.44
2022-11-16T09:29:52.341Z,7.45
2022-11-16T09:30:52.351Z,7.46
2022-11-16T09:31:52.352Z,7.47
2022-11-16T09:32:52.364Z,7.48
2022-11-16T09:33:52.369Z,7.48
2022-11-16T09:34:52.383Z,7.48
2022-11-16T09:35:52.389Z,7.48
2022-11-16T09:36:52.400Z,7.51
2022-11-16T09:37:52.418Z,7.52
2022-11-16T09:39:52.430Z,7.54
2022-11-16T09:40:52.443Z,7.52
2022-11-16T09:41:52.452Z,7.49
2022-11-16T09:42:52.459Z,7.49
2022-11-16T09:43:52.471Z,7.47
2022-11-16T09:44:52.505Z,7.47
2022-11-16T09:45:52.487Z,7.47
2022-11-16T09:46:52.495Z,7.46
2022-11-16T09:47:52.504Z,7.45
2022-11-16T09:48:52.534Z,7.43
2022-11-16T09:49:52.516Z,7.43
2022-11-16T09:50:52.529Z,7.41
2022-11-16T09:51:52.532Z,7.41
2022-11-16T09:52:52.545Z,7.40
2022-11-16T09:53:52.551Z,7.41
2022-11-16T09:54:52.567Z,7.41
2022-11-16T09:55:52.575Z,7.44
2022-11-16T09:56:52.585Z,7.45
2022-11-16T09:57:52.595Z,7.43
2022-11-16T09:58:52.606Z,7.39
2022-11-16T09:59:52.612Z,7.38
2022-11-16T10:00:52.669Z,7.37
2022-11-16T10:01:52.636Z,7.37
2022-11-16T10:02:52.649Z,7.37
2022-11-16T10:03:52.654Z,7.40
2022-11-16T10:04:57.896Z,7.41
2022-11-16T10:05:52.813Z,7.40
2022-11-16T10:06:52.716Z,7.42
2022-11-16T10:07:52.691Z,7.42
2022-11-16T10:08:52.701Z,7.44
2022-11-16T10:09:52.711Z,7.43
2022-11-16T10:10:52.725Z,7.45
2022-11-16T10:11:52.733Z,7.46
2022-11-16T10:12:52.750Z,7.45
2022-11-16T10:13:52.759Z,7.45
2022-11-16T10:14:52.765Z,7.46
2022-11-16T10:15:52.782Z,7.47
2022-11-16T10:16:52.790Z,7.49
2022-11-16T10:17:52.802Z,7.51
2022-11-16T10:18:52.812Z,7.54
2022-11-16T10:19:52.818Z,7.56
2022-11-16T10:20:52.826Z,7.57
2022-11-16T10:21:52.830Z,7.58
2022-11-16T10:22:52.836Z,7.59
2022-11-16T10:23:52.842Z,7.60
2022-11-16T10:24:52.847Z,7.59
2022-11-16T10:25:52.866Z,7.61
2022-11-16T10:26:52.866Z,7.62
2022-11-16T10:27:52.873Z,7.65
2022-11-16T10:28:52.886Z,7.65
2022-11-16T10:29:52.897Z,7.65
2022-11-16T10:30:52.904Z,7.66
2022-11-16T10:31:52.912Z,7.66
2022-11-16T10:32:52.929Z,7.62
2022-11-16T10:33:52.943Z,7.65
2022-11-16T10:34:52.958Z,7.63
2022-11-16T10:35:52.968Z,7.60
2022-11-16T10:36:52.978Z,7.59
2022-11-16T10:37:52.982Z,7.59
2022-11-16T10:38:52.988Z,7.63
2022-11-16T10:39:53.010Z,7.61
2022-11-16T10:40:53.010Z,7.61
2022-11-16T10:41:53.018Z,7.60
2022-11-16T10:42:53.032Z,7.62
2022-11-16T10:43:53.043Z,7.59
2022-11-16T10:44:53.057Z,7.58
2022-11-16T10:45:53.068Z,7.60
2022-11-16T10:46:53.084Z,7.59
2022-11-16T10:47:53.100Z,7.60
2022-11-16T10:48:53.110Z,7.61
2022-11-16T10:49:53.122Z,7.58
2022-11-16T10:50:53.138Z,7.59
2022-11-16T10:51:53.141Z,7.62
2022-11-16T10:52:53.152Z,7.65
2022-11-16T10:53:53.169Z,7.68
2022-11-16T10:54:53.182Z,7.69
2022-11-16T10:55:53.183Z,7.67
2022-11-16T10:56:53.189Z,7.66
2022-11-16T10:57:53.198Z,7.65
2022-11-16T10:58:53.204Z,7.63
2022-11-16T10:59:53.214Z,7.60
2022-11-16T11:00:53.269Z,7.58
2022-11-16T11:01:53.288Z,7.56
2022-11-16T11:02:53.240Z,7.58
2022-11-16T11:03:53.247Z,7.57
2022-11-16T11:04:53.250Z,7.56
2022-11-16T11:05:53.267Z,7.55
2022-11-16T11:06:53.335Z,7.57
2022-11-16T11:07:58.401Z,7.56
2022-11-16T11:08:53.292Z,7.56
2022-11-16T11:09:53.306Z,7.55
2022-11-16T11:10:53.308Z,7.59
2022-11-16T11:11:53.318Z,7.59
2022-11-16T11:12:53.333Z,7.60
2022-11-16T11:13:53.337Z,7.63
2022-11-16T11:14:53.352Z,7.64
2022-11-16T11:15:53.414Z,7.68
2022-11-16T11:16:53.375Z,7.68
2022-11-16T11:17:53.386Z,7.68
2022-11-16T11:18:53.388Z,7.70
2022-11-16T11:19:53.402Z,7.69
2022-11-16T11:20:53.417Z,7.69
2022-11-16T11:21:53.429Z,7.68
2022-11-16T11:22:53.440Z,7.66
2022-11-16T11:23:53.452Z,7.62
2022-11-16T11:24:53.462Z,7.60
2022-11-16T11:25:53.483Z,7.62
2022-11-16T11:26:53.488Z,7.63
2022-11-16T11:27:53.492Z,7.65
2022-11-16T11:28:53.508Z,7.66
2022-11-16T11:29:53.516Z,7.69
2022-11-16T11:30:53.528Z,7.70
2022-11-16T11:31:53.539Z,7.75
2022-11-16T11:32:53.552Z,7.72
2022-11-16T11:33:53.561Z,7.74
2022-11-16T11:34:53.578Z,7.76
2022-11-16T11:35:53.589Z,7.72
2022-11-16T11:36:53.604Z,7.75
2022-11-16T11:37:53.615Z,7.76
2022-11-16T11:38:53.684Z,7.75
2022-11-16T11:39:53.639Z,7.76
2022-11-16T11:40:53.647Z,7.80
2022-11-16T11:41:53.653Z,7.84
2022-11-16T11:42:53.664Z,7.85
2022-11-16T11:43:53.673Z,7.84
2022-11-16T11:44:53.676Z,7.83
2022-11-16T11:45:53.697Z,7.86
2022-11-16T11:47:35.560Z,7.89
2022-11-16T11:47:58.860Z,7.92
2022-11-16T11:48:53.717Z,7.94
2022-11-16T11:49:53.730Z,7.94
2022-11-16T11:50:53.739Z,7.95
2022-11-16T11:51:53.753Z,7.95
2022-11-16T11:52:53.781Z,7.96
2022-11-16T11:53:53.781Z,7.97
2022-11-16T11:54:53.786Z,7.95
2022-11-16T11:55:53.941Z,7.97
2022-11-16T11:56:53.816Z,7.98
2022-11-16T11:57:53.829Z,7.99
2022-11-16T11:58:53.842Z,7.99
2022-11-16T11:59:53.865Z,7.98
2022-11-16T12:00:53.862Z,7.96
2022-11-16T12:01:53.868Z,7.96
2022-11-16T12:02:53.938Z,7.95
2022-11-16T12:03:53.889Z,7.95
2022-11-16T12:04:53.893Z,7.96
2022-11-16T12:05:53.908Z,7.95
2022-11-16T12:06:53.925Z,7.94
2022-11-16T12:07:53.925Z,7.93
2022-11-16T12:08:53.940Z,7.93
2022-11-16T12:09:53.954Z,7.94
2022-11-16T12:10:53.961Z,7.93
2022-11-16T12:11:53.973Z,7.94
2022-11-16T12:12:53.978Z,7.94
2022-11-16T12:13:53.990Z,7.92
2022-11-16T12:14:53.995Z,7.95
2022-11-16T12:15:54.009Z,7.93
2022-11-16T12:16:54.019Z,7.94
2022-11-16T12:17:54.035Z,7.94
2022-11-16T12:18:54.041Z,7.95
2022-11-16T12:19:54.048Z,7.94
2022-11-16T12:20:54.053Z,7.94
2022-11-16T12:21:54.059Z,7.93
2022-11-16T12:22:54.077Z,7.90
2022-11-16T12:23:54.077Z,7.90
2022-11-16T12:24:54.088Z,7.90
2022-11-16T12:25:54.098Z,7.89
2022-11-16T12:26:54.112Z,7.88
2022-11-16T12:27:54.130Z,7.91
2022-11-16T12:28:54.138Z,7.88
2022-11-16T12:29:54.156Z,7.88
2022-11-16T12:30:57.776Z,7.89
2022-11-16T12:31:54.172Z,7.91
2022-11-16T12:32:54.174Z,7.93
2022-11-16T12:33:54.183Z,7.94
2022-11-16T12:34:54.187Z,7.95
2022-11-16T12:35:54.200Z,7.97
2022-11-16T12:36:54.207Z,7.97
2022-11-16T12:37:54.211Z,7.96
2022-11-16T12:38:54.221Z,7.97
2022-11-16T12:39:54.235Z,7.96
2022-11-16T12:40:54.254Z,7.98
2022-11-16T12:41:54.263Z,7.98
2022-11-16T12:42:54.281Z,7.99
2022-11-16T12:43:54.291Z,8.01
2022-11-16T12:44:54.306Z,8.00
2022-11-16T12:45:54.323Z,8.01
2022-11-16T12:46:54.337Z,8.02
2022-11-16T12:47:54.343Z,8.00
2022-11-16T12:48:54.355Z,8.00
2022-11-16T12:49:54.362Z,8.02
2022-11-16T12:50:54.368Z,7.99
2022-11-16T12:51:54.381Z,7.98
2022-11-16T12:52:54.397Z,7.99
2022-11-16T12:53:54.410Z,7.99
2022-11-16T12:55:23.921Z,7.99
2022-11-16T12:55:54.432Z,7.98
2022-11-16T12:56:54.453Z,7.99
2022-11-16T12:57:54.451Z,7.96
2022-11-16T12:58:54.468Z,7.95
2022-11-16T12:59:54.475Z,7.95
2022-11-16T13:00:54.554Z,7.96
2022-11-16T13:01:59.197Z,7.95
2022-11-16T13:02:54.516Z,7.96
2022-11-16T13:03:54.521Z,7.95
2022-11-16T13:04:54.528Z,7.96
2022-11-16T13:05:54.538Z,7.98
2022-11-16T13:06:54.557Z,7.97
2022-11-16T13:07:54.552Z,7.96
2022-11-16T13:08:54.559Z,7.98
2022-11-16T13:09:54.570Z,7.98
2022-11-16T13:10:54.587Z,7.98
2022-11-16T13:11:54.599Z,8.00
2022-11-16T13:13:03.962Z,8.01
2022-11-16T13:13:54.748Z,8.00
2022-11-16T13:14:54.622Z,8.00
2022-11-16T13:15:54.634Z,8.00
2022-11-16T13:16:54.643Z,7.99
2022-11-16T13:17:54.649Z,7.97
2022-11-16T13:18:54.662Z,7.95
2022-11-16T13:19:54.672Z,7.92
2022-11-16T13:20:54.688Z,7.90
2022-11-16T13:21:54.698Z,7.88
2022-11-16T13:22:54.715Z,7.88
2022-11-16T13:23:54.727Z,7.90
2022-11-16T13:24:54.745Z,7.88
2022-11-16T13:25:54.752Z,7.88
2022-11-16T13:26:54.768Z,7.90
2022-11-16T13:27:54.775Z,7.88
2022-11-16T13:28:54.781Z,7.87
2022-11-16T13:29:54.793Z,7.86
2022-11-16T13:30:54.798Z,7.81
2022-11-16T13:31:54.807Z,7.80
2022-11-16T13:32:54.823Z,7.78
2022-11-16T13:33:54.832Z,7.78
2022-11-16T13:34:54.853Z,7.80
2022-11-16T13:35:54.860Z,7.76
2022-11-16T13:36:54.871Z,7.77
2022-11-16T13:37:54.885Z,7.75
2022-11-16T13:38:54.890Z,7.73
2022-11-16T13:39:54.898Z,7.71
2022-11-16T13:40:54.915Z,7.63
2022-11-16T13:41:55.033Z,7.62
2022-11-16T13:42:54.932Z,7.60
2022-11-16T13:43:54.945Z,7.61
2022-11-16T13:44:54.957Z,7.62
2022-11-16T13:45:54.970Z,7.61
2022-11-16T13:46:56.410Z,7.62
2022-11-16T13:47:54.994Z,7.61
2022-11-16T13:48:55.010Z,7.61
2022-11-16T13:49:55.017Z,7.60
2022-11-16T13:50:55.039Z,7.62
2022-11-16T13:51:55.036Z,7.59
2022-11-16T13:53:41.168Z,7.60
2022-11-16T13:54:55.844Z,7.63